Hauptseite
METAR-TAF:

METAR-TAF

Flughäfen :

Fliegerhorst Schleswig

Schleswig-Jagel, Deutschland

Breite: 54-28N, Länge: 009-31E, Höhe: 22 m

Beobachtung

Neuester Wetterbericht von vor 32 Minuten, um 21:20 UTC
Wind 3 kt aus Nord/Nordost
Temperatur 18°C
Luftfeuchtigkeit 59%
Luftdruck 1013 hPa
Sichtweite 10 km oder mehr

METAR: ETNS 202120Z AUTO 03003KT 9999 // ////// 18/10 Q1013 ///

Zeit: 23:52 (21:52 UTC)

Prognose

Neuester Wetterbericht von vor 11 Stunden und 47 Minuten, um 10:05 UTC
Gültige Prognose vom 20 um 10 UTC bis 20 um 17 UTC
Wind 8 kt aus Nord/Nordwest
Sichtweite 10 km oder mehr
Leicht bewölkt in der Höhe von 7000 ft
Aufgelockert bewölkt in der Höhe von 30000 ft

TAF: ETNS 201005Z 2010/2017 33008KT 9999 NSW FEW070 SCT300 CANCEL 1010Z BY ETGL

Wetterbeobachtungen und Prognosen von mehr als 4000 Flughäfen (METAR und TAF Bericht).

Die verfügbaren Stationen werden durch gelbe und rote Markierungen auf der Karte dargestellt.

Führen Sie die Maus auf sie, um den Namen der Station zu sehen.

Darauf klicken, um die Beobachtung von Wetterbeobachtungen und Prognosen zu sehen.

Um die Karte zu ändern : klicken Sie auf den grünen Tasten mit einem schwarzen Kreuz Zum Vergrößern, auf den grünen Button mit einem Gedankenstrich zu verkleinern, oder auf die grünen Pfeile für benachbarte Karten.


METAR-TAF: